sensor_id;sensor_type;location;lat;lon;timestamp;temperature;humidity
70456;DHT22;57916;51.996;5.180;2022-11-13T00:01:24;11.80;66.30
70456;DHT22;57916;51.996;5.180;2022-11-13T00:04:09;11.70;65.80
70456;DHT22;57916;51.996;5.180;2022-11-13T00:06:55;11.70;66.00
70456;DHT22;57916;51.996;5.180;2022-11-13T00:09:43;11.70;66.20
70456;DHT22;57916;51.996;5.180;2022-11-13T00:12:28;11.60;66.40
70456;DHT22;57916;51.996;5.180;2022-11-13T00:15:14;11.60;66.40
70456;DHT22;57916;51.996;5.180;2022-11-13T00:18:00;11.70;66.60
70456;DHT22;57916;51.996;5.180;2022-11-13T00:20:46;11.70;66.60
70456;DHT22;57916;51.996;5.180;2022-11-13T00:23:33;11.60;66.80
70456;DHT22;57916;51.996;5.180;2022-11-13T00:26:27;11.60;66.60
70456;DHT22;57916;51.996;5.180;2022-11-13T00:29:13;11.60;66.90
70456;DHT22;57916;51.996;5.180;2022-11-13T00:31:58;11.60;67.00
70456;DHT22;57916;51.996;5.180;2022-11-13T00:34:44;11.50;67.00
70456;DHT22;57916;51.996;5.180;2022-11-13T00:37:32;11.50;67.00
70456;DHT22;57916;51.996;5.180;2022-11-13T00:40:18;11.50;67.00
70456;DHT22;57916;51.996;5.180;2022-11-13T00:43:03;11.50;66.90
70456;DHT22;57916;51.996;5.180;2022-11-13T00:45:49;11.50;66.40
70456;DHT22;57916;51.996;5.180;2022-11-13T00:48:35;11.50;66.40
70456;DHT22;57916;51.996;5.180;2022-11-13T00:51:21;11.50;66.80
70456;DHT22;57916;51.996;5.180;2022-11-13T00:54:06;11.40;67.00
70456;DHT22;57916;51.996;5.180;2022-11-13T00:56:51;11.40;67.00
70456;DHT22;57916;51.996;5.180;2022-11-13T00:59:37;11.40;67.10
70456;DHT22;57916;51.996;5.180;2022-11-13T01:02:22;11.40;66.90
70456;DHT22;57916;51.996;5.180;2022-11-13T01:05:08;11.30;67.60
70456;DHT22;57916;51.996;5.180;2022-11-13T01:07:53;11.20;67.80
70456;DHT22;57916;51.996;5.180;2022-11-13T01:10:43;11.10;67.70
70456;DHT22;57916;51.996;5.180;2022-11-13T01:13:37;11.20;67.50
70456;DHT22;57916;51.996;5.180;2022-11-13T01:16:25;11.10;66.90
70456;DHT22;57916;51.996;5.180;2022-11-13T01:19:10;11.10;66.80
70456;DHT22;57916;51.996;5.180;2022-11-13T01:21:56;11.10;66.80
70456;DHT22;57916;51.996;5.180;2022-11-13T01:24:41;11.10;67.90
70456;DHT22;57916;51.996;5.180;2022-11-13T01:27:27;11.10;67.20
70456;DHT22;57916;51.996;5.180;2022-11-13T01:30:12;11.10;67.70
70456;DHT22;57916;51.996;5.180;2022-11-13T01:32:58;11.10;68.50
70456;DHT22;57916;51.996;5.180;2022-11-13T01:35:43;11.10;69.90
70456;DHT22;57916;51.996;5.180;2022-11-13T01:38:28;11.00;70.50
70456;DHT22;57916;51.996;5.180;2022-11-13T01:41:27;11.00;69.30
70456;DHT22;57916;51.996;5.180;2022-11-13T01:44:15;11.10;69.50
70456;DHT22;57916;51.996;5.180;2022-11-13T01:47:02;11.10;69.20
70456;DHT22;57916;51.996;5.180;2022-11-13T01:49:50;11.00;69.90
70456;DHT22;57916;51.996;5.180;2022-11-13T01:52:40;11.00;70.70
70456;DHT22;57916;51.996;5.180;2022-11-13T01:55:26;11.00;71.20
70456;DHT22;57916;51.996;5.180;2022-11-13T01:58:12;11.00;71.10
70456;DHT22;57916;51.996;5.180;2022-11-13T02:00:58;11.10;71.00
70456;DHT22;57916;51.996;5.180;2022-11-13T02:03:44;11.20;70.70
70456;DHT22;57916;51.996;5.180;2022-11-13T02:06:40;11.20;70.60
70456;DHT22;57916;51.996;5.180;2022-11-13T02:09:34;11.20;70.40
70456;DHT22;57916;51.996;5.180;2022-11-13T02:12:27;11.30;70.20
70456;DHT22;57916;51.996;5.180;2022-11-13T02:15:15;11.20;69.80
70456;DHT22;57916;51.996;5.180;2022-11-13T02:18:02;11.20;70.00
70456;DHT22;57916;51.996;5.180;2022-11-13T02:21:16;11.20;70.20
70456;DHT22;57916;51.996;5.180;2022-11-13T02:24:20;11.20;70.20
70456;DHT22;57916;51.996;5.180;2022-11-13T02:27:07;11.30;70.20
70456;DHT22;57916;51.996;5.180;2022-11-13T02:29:55;11.40;70.00
70456;DHT22;57916;51.996;5.180;2022-11-13T02:32:48;11.40;69.70
70456;DHT22;57916;51.996;5.180;2022-11-13T02:35:35;11.40;69.40
70456;DHT22;57916;51.996;5.180;2022-11-13T02:38:21;11.50;69.30
70456;DHT22;57916;51.996;5.180;2022-11-13T02:41:07;11.50;69.30
70456;DHT22;57916;51.996;5.180;2022-11-13T02:43:52;11.50;69.10
70456;DHT22;57916;51.996;5.180;2022-11-13T02:46:38;11.50;68.80
70456;DHT22;57916;51.996;5.180;2022-11-13T02:49:23;11.50;68.60
70456;DHT22;57916;51.996;5.180;2022-11-13T02:52:09;11.50;68.10
70456;DHT22;57916;51.996;5.180;2022-11-13T02:54:55;11.50;68.00
70456;DHT22;57916;51.996;5.180;2022-11-13T02:57:40;11.40;67.90
70456;DHT22;57916;51.996;5.180;2022-11-13T03:00:26;11.50;67.70
70456;DHT22;57916;51.996;5.180;2022-11-13T03:03:11;11.50;67.90
70456;DHT22;57916;51.996;5.180;2022-11-13T03:05:56;11.50;68.10
70456;DHT22;57916;51.996;5.180;2022-11-13T03:08:42;11.50;68.90
70456;DHT22;57916;51.996;5.180;2022-11-13T03:11:28;11.50;68.00
70456;DHT22;57916;51.996;5.180;2022-11-13T03:14:13;11.50;67.90
70456;DHT22;57916;51.996;5.180;2022-11-13T03:16:59;11.60;67.60
70456;DHT22;57916;51.996;5.180;2022-11-13T03:19:44;11.50;67.40
70456;DHT22;57916;51.996;5.180;2022-11-13T03:22:30;11.50;67.30
70456;DHT22;57916;51.996;5.180;2022-11-13T03:25:15;11.50;67.50
70456;DHT22;57916;51.996;5.180;2022-11-13T03:28:01;11.50;67.70
70456;DHT22;57916;51.996;5.180;2022-11-13T03:30:46;11.50;67.50
70456;DHT22;57916;51.996;5.180;2022-11-13T03:33:32;11.50;67.30
70456;DHT22;57916;51.996;5.180;2022-11-13T03:36:18;11.60;67.10
70456;DHT22;57916;51.996;5.180;2022-11-13T03:39:03;11.70;67.00
70456;DHT22;57916;51.996;5.180;2022-11-13T03:41:48;11.60;66.70
70456;DHT22;57916;51.996;5.180;2022-11-13T03:44:34;11.70;66.60
70456;DHT22;57916;51.996;5.180;2022-11-13T03:47:19;11.70;66.30
70456;DHT22;57916;51.996;5.180;2022-11-13T03:50:05;11.70;66.30
70456;DHT22;57916;51.996;5.180;2022-11-13T03:52:51;11.70;66.50
70456;DHT22;57916;51.996;5.180;2022-11-13T03:55:36;11.70;66.50
70456;DHT22;57916;51.996;5.180;2022-11-13T03:58:22;11.70;66.50
70456;DHT22;57916;51.996;5.180;2022-11-13T04:01:08;11.60;66.40
70456;DHT22;57916;51.996;5.180;2022-11-13T04:03:53;11.60;66.40
70456;DHT22;57916;51.996;5.180;2022-11-13T04:06:39;11.70;66.40
70456;DHT22;57916;51.996;5.180;2022-11-13T04:09:25;11.60;66.80
70456;DHT22;57916;51.996;5.180;2022-11-13T04:12:10;11.60;66.30
70456;DHT22;57916;51.996;5.180;2022-11-13T04:14:55;11.60;66.30
70456;DHT22;57916;51.996;5.180;2022-11-13T04:17:41;11.60;66.30
70456;DHT22;57916;51.996;5.180;2022-11-13T04:20:27;11.60;66.30
70456;DHT22;57916;51.996;5.180;2022-11-13T04:23:12;11.60;66.20
70456;DHT22;57916;51.996;5.180;2022-11-13T04:25:59;11.60;66.20
70456;DHT22;57916;51.996;5.180;2022-11-13T04:28:45;11.60;66.20
70456;DHT22;57916;51.996;5.180;2022-11-13T04:31:31;11.60;66.20
70456;DHT22;57916;51.996;5.180;2022-11-13T04:34:16;11.60;66.20
70456;DHT22;57916;51.996;5.180;2022-11-13T04:37:02;11.60;66.10
70456;DHT22;57916;51.996;5.180;2022-11-13T04:39:47;11.70;66.10
70456;DHT22;57916;51.996;5.180;2022-11-13T04:42:32;11.70;65.90
70456;DHT22;57916;51.996;5.180;2022-11-13T04:45:33;11.70;65.60
70456;DHT22;57916;51.996;5.180;2022-11-13T04:48:19;11.70;65.40
70456;DHT22;57916;51.996;5.180;2022-11-13T04:51:05;11.80;65.10
70456;DHT22;57916;51.996;5.180;2022-11-13T04:53:50;11.80;64.90
70456;DHT22;57916;51.996;5.180;2022-11-13T04:56:36;11.90;64.70
70456;DHT22;57916;51.996;5.180;2022-11-13T04:59:21;11.90;65.50
70456;DHT22;57916;51.996;5.180;2022-11-13T05:02:07;11.90;64.50
70456;DHT22;57916;51.996;5.180;2022-11-13T05:04:52;11.90;64.30
70456;DHT22;57916;51.996;5.180;2022-11-13T05:07:38;11.80;64.20
70456;DHT22;57916;51.996;5.180;2022-11-13T05:10:23;11.80;64.20
70456;DHT22;57916;51.996;5.180;2022-11-13T05:13:08;11.90;64.30
70456;DHT22;57916;51.996;5.180;2022-11-13T05:16:06;11.90;64.20
70456;DHT22;57916;51.996;5.180;2022-11-13T05:18:52;11.90;64.10
70456;DHT22;57916;51.996;5.180;2022-11-13T05:21:38;11.90;63.90
70456;DHT22;57916;51.996;5.180;2022-11-13T05:24:24;11.90;63.80
70456;DHT22;57916;51.996;5.180;2022-11-13T05:27:09;11.90;63.70
70456;DHT22;57916;51.996;5.180;2022-11-13T05:30:01;11.90;63.70
70456;DHT22;57916;51.996;5.180;2022-11-13T05:32:47;11.90;64.20
70456;DHT22;57916;51.996;5.180;2022-11-13T05:35:32;11.80;63.70
70456;DHT22;57916;51.996;5.180;2022-11-13T05:38:17;11.80;63.70
70456;DHT22;57916;51.996;5.180;2022-11-13T05:41:04;11.70;63.80
70456;DHT22;57916;51.996;5.180;2022-11-13T05:43:50;11.70;64.60
70456;DHT22;57916;51.996;5.180;2022-11-13T05:46:43;11.70;63.80
70456;DHT22;57916;51.996;5.180;2022-11-13T05:49:29;11.60;63.80
70456;DHT22;57916;51.996;5.180;2022-11-13T05:52:14;11.50;63.90
70456;DHT22;57916;51.996;5.180;2022-11-13T05:54:59;11.50;64.40
70456;DHT22;57916;51.996;5.180;2022-11-13T05:57:45;11.50;63.30
70456;DHT22;57916;51.996;5.180;2022-11-13T06:00:30;11.50;63.50
70456;DHT22;57916;51.996;5.180;2022-11-13T06:03:15;11.50;63.50
70456;DHT22;57916;51.996;5.180;2022-11-13T06:06:01;11.60;63.50
70456;DHT22;57916;51.996;5.180;2022-11-13T06:08:48;11.50;63.30
70456;DHT22;57916;51.996;5.180;2022-11-13T06:11:34;11.50;63.70
70456;DHT22;57916;51.996;5.180;2022-11-13T06:14:19;11.50;64.10
70456;DHT22;57916;51.996;5.180;2022-11-13T06:17:04;11.40;64.30
70456;DHT22;57916;51.996;5.180;2022-11-13T06:19:50;11.30;64.40
70456;DHT22;57916;51.996;5.180;2022-11-13T06:22:35;11.20;64.50
70456;DHT22;57916;51.996;5.180;2022-11-13T06:25:21;11.20;64.40
70456;DHT22;57916;51.996;5.180;2022-11-13T06:28:06;11.10;64.40
70456;DHT22;57916;51.996;5.180;2022-11-13T06:30:51;11.10;64.40
70456;DHT22;57916;51.996;5.180;2022-11-13T06:33:38;11.00;64.40
70456;DHT22;57916;51.996;5.180;2022-11-13T06:36:29;11.10;64.50
70456;DHT22;57916;51.996;5.180;2022-11-13T06:39:14;11.10;64.30
70456;DHT22;57916;51.996;5.180;2022-11-13T06:42:00;11.20;64.20
70456;DHT22;57916;51.996;5.180;2022-11-13T06:44:45;11.20;64.10
70456;DHT22;57916;51.996;5.180;2022-11-13T06:47:31;11.20;64.10
70456;DHT22;57916;51.996;5.180;2022-11-13T06:50:16;11.20;64.00
70456;DHT22;57916;51.996;5.180;2022-11-13T06:53:02;11.20;63.80
70456;DHT22;57916;51.996;5.180;2022-11-13T06:55:48;11.30;63.60
70456;DHT22;57916;51.996;5.180;2022-11-13T06:58:35;11.30;63.40
70456;DHT22;57916;51.996;5.180;2022-11-13T07:01:22;11.30;63.20
70456;DHT22;57916;51.996;5.180;2022-11-13T07:04:11;11.30;63.50
70456;DHT22;57916;51.996;5.180;2022-11-13T07:06:56;11.30;63.30
70456;DHT22;57916;51.996;5.180;2022-11-13T07:09:42;11.30;63.60
70456;DHT22;57916;51.996;5.180;2022-11-13T07:12:27;11.20;63.70
70456;DHT22;57916;51.996;5.180;2022-11-13T07:15:15;11.10;63.70
70456;DHT22;57916;51.996;5.180;2022-11-13T07:18:02;11.20;63.50
70456;DHT22;57916;51.996;5.180;2022-11-13T07:20:48;11.20;63.40
70456;DHT22;57916;51.996;5.180;2022-11-13T07:23:34;11.20;63.80
70456;DHT22;57916;51.996;5.180;2022-11-13T07:26:21;11.20;63.80
70456;DHT22;57916;51.996;5.180;2022-11-13T07:29:07;11.20;63.90
70456;DHT22;57916;51.996;5.180;2022-11-13T07:31:52;11.20;64.00
70456;DHT22;57916;51.996;5.180;2022-11-13T07:34:38;11.30;64.20
70456;DHT22;57916;51.996;5.180;2022-11-13T07:37:23;11.30;64.40
70456;DHT22;57916;51.996;5.180;2022-11-13T07:40:09;11.30;64.40
70456;DHT22;57916;51.996;5.180;2022-11-13T07:43:00;11.30;64.50
70456;DHT22;57916;51.996;5.180;2022-11-13T07:45:46;11.40;64.50
70456;DHT22;57916;51.996;5.180;2022-11-13T07:48:31;11.40;64.50
70456;DHT22;57916;51.996;5.180;2022-11-13T07:51:17;11.40;64.60
70456;DHT22;57916;51.996;5.180;2022-11-13T07:54:03;11.40;64.50
70456;DHT22;57916;51.996;5.180;2022-11-13T07:56:48;11.50;64.60
70456;DHT22;57916;51.996;5.180;2022-11-13T07:59:34;11.50;64.60
70456;DHT22;57916;51.996;5.180;2022-11-13T08:02:19;11.60;64.50
70456;DHT22;57916;51.996;5.180;2022-11-13T08:05:10;11.60;64.60
70456;DHT22;57916;51.996;5.180;2022-11-13T08:07:56;11.70;64.60
70456;DHT22;57916;51.996;5.180;2022-11-13T08:10:41;11.70;64.50
70456;DHT22;57916;51.996;5.180;2022-11-13T08:13:27;11.70;64.30
70456;DHT22;57916;51.996;5.180;2022-11-13T08:16:12;11.80;64.00
70456;DHT22;57916;51.996;5.180;2022-11-13T08:18:58;11.80;63.90
70456;DHT22;57916;51.996;5.180;2022-11-13T08:21:43;11.80;63.90
70456;DHT22;57916;51.996;5.180;2022-11-13T08:24:28;11.90;64.00
70456;DHT22;57916;51.996;5.180;2022-11-13T08:27:14;11.90;64.00
70456;DHT22;57916;51.996;5.180;2022-11-13T08:29:59;12.00;64.00
70456;DHT22;57916;51.996;5.180;2022-11-13T08:32:45;12.10;64.10
70456;DHT22;57916;51.996;5.180;2022-11-13T08:35:31;12.30;64.20
70456;DHT22;57916;51.996;5.180;2022-11-13T08:38:16;12.50;64.70
70456;DHT22;57916;51.996;5.180;2022-11-13T08:41:04;12.80;63.40
70456;DHT22;57916;51.996;5.180;2022-11-13T08:43:54;13.10;62.90
70456;DHT22;57916;51.996;5.180;2022-11-13T08:46:39;13.40;62.80
70456;DHT22;57916;51.996;5.180;2022-11-13T08:49:24;13.70;61.90
70456;DHT22;57916;51.996;5.180;2022-11-13T08:52:10;13.90;61.10
70456;DHT22;57916;51.996;5.180;2022-11-13T08:54:55;14.10;60.50
70456;DHT22;57916;51.996;5.180;2022-11-13T08:57:41;14.30;60.70
70456;DHT22;57916;51.996;5.180;2022-11-13T09:00:28;14.70;59.80
70456;DHT22;57916;51.996;5.180;2022-11-13T09:03:13;15.10;59.00
70456;DHT22;57916;51.996;5.180;2022-11-13T09:05:58;15.50;58.30
70456;DHT22;57916;51.996;5.180;2022-11-13T09:08:44;15.90;57.40
70456;DHT22;57916;51.996;5.180;2022-11-13T09:11:30;16.20;56.10
70456;DHT22;57916;51.996;5.180;2022-11-13T09:14:15;16.40;54.50
70456;DHT22;57916;51.996;5.180;2022-11-13T09:17:00;16.40;54.30
70456;DHT22;57916;51.996;5.180;2022-11-13T09:19:46;16.60;53.20
70456;DHT22;57916;51.996;5.180;2022-11-13T09:22:33;16.70;52.20
70456;DHT22;57916;51.996;5.180;2022-11-13T09:25:18;16.70;52.50
70456;DHT22;57916;51.996;5.180;2022-11-13T09:28:05;16.80;51.50
70456;DHT22;57916;51.996;5.180;2022-11-13T09:30:50;17.00;50.70
70456;DHT22;57916;51.996;5.180;2022-11-13T09:33:36;17.20;50.00
70456;DHT22;57916;51.996;5.180;2022-11-13T09:36:21;17.40;50.10
70456;DHT22;57916;51.996;5.180;2022-11-13T09:39:07;17.60;49.50
70456;DHT22;57916;51.996;5.180;2022-11-13T09:41:56;17.90;48.20
70456;DHT22;57916;51.996;5.180;2022-11-13T09:44:56;18.10;47.30
70456;DHT22;57916;51.996;5.180;2022-11-13T09:47:45;18.40;46.00
70456;DHT22;57916;51.996;5.180;2022-11-13T09:50:32;18.60;46.00
70456;DHT22;57916;51.996;5.180;2022-11-13T09:53:18;18.80;45.60
70456;DHT22;57916;51.996;5.180;2022-11-13T09:56:15;19.00;46.00
70456;DHT22;57916;51.996;5.180;2022-11-13T10:11:41;17.70;47.80
70456;DHT22;57916;51.996;5.180;2022-11-13T10:14:37;17.50;48.80
70456;DHT22;57916;51.996;5.180;2022-11-13T10:17:51;17.30;49.10
70456;DHT22;57916;51.996;5.180;2022-11-13T10:23:38;16.90;49.80
70456;DHT22;57916;51.996;5.180;2022-11-13T10:26:27;16.90;50.00
70456;DHT22;57916;51.996;5.180;2022-11-13T10:29:18;16.80;50.50
70456;DHT22;57916;51.996;5.180;2022-11-13T10:32:25;16.80;50.70
70456;DHT22;57916;51.996;5.180;2022-11-13T10:35:36;16.70;50.80
70456;DHT22;57916;51.996;5.180;2022-11-13T10:38:58;16.70;50.60
70456;DHT22;57916;51.996;5.180;2022-11-13T10:41:54;16.60;49.70
70456;DHT22;57916;51.996;5.180;2022-11-13T10:44:39;16.70;50.20
70456;DHT22;57916;51.996;5.180;2022-11-13T10:47:27;16.60;48.30
70456;DHT22;57916;51.996;5.180;2022-11-13T10:50:33;16.60;48.40
70456;DHT22;57916;51.996;5.180;2022-11-13T10:53:20;16.50;48.60
70456;DHT22;57916;51.996;5.180;2022-11-13T10:56:27;16.50;49.00
70456;DHT22;57916;51.996;5.180;2022-11-13T10:59:15;16.40;49.30
70456;DHT22;57916;51.996;5.180;2022-11-13T11:05:25;16.40;49.90
70456;DHT22;57916;51.996;5.180;2022-11-13T11:08:13;16.40;49.60
70456;DHT22;57916;51.996;5.180;2022-11-13T11:11:02;16.40;49.20
70456;DHT22;57916;51.996;5.180;2022-11-13T11:14:18;16.30;48.90
70456;DHT22;57916;51.996;5.180;2022-11-13T11:17:06;16.30;49.50
70456;DHT22;57916;51.996;5.180;2022-11-13T11:20:03;16.30;49.00
70456;DHT22;57916;51.996;5.180;2022-11-13T11:26:08;16.30;49.50
70456;DHT22;57916;51.996;5.180;2022-11-13T11:34:55;16.40;49.70
70456;DHT22;57916;51.996;5.180;2022-11-13T11:38:15;16.40;50.40
70456;DHT22;57916;51.996;5.180;2022-11-13T11:41:13;16.40;50.30
70456;DHT22;57916;51.996;5.180;2022-11-13T11:44:21;16.40;50.00
70456;DHT22;57916;51.996;5.180;2022-11-13T11:47:14;16.50;50.10
70456;DHT22;57916;51.996;5.180;2022-11-13T11:50:01;16.60;49.80
70456;DHT22;57916;51.996;5.180;2022-11-13T11:53:13;16.60;49.80
70456;DHT22;57916;51.996;5.180;2022-11-13T12:02:56;16.90;50.80
70456;DHT22;57916;51.996;5.180;2022-11-13T12:11:51;17.00;49.60
70456;DHT22;57916;51.996;5.180;2022-11-13T12:27:31;17.10;50.00
70456;DHT22;57916;51.996;5.180;2022-11-13T12:30:29;17.20;50.60
70456;DHT22;57916;51.996;5.180;2022-11-13T12:36:19;17.30;49.40
70456;DHT22;57916;51.996;5.180;2022-11-13T12:45:48;17.40;50.10
70456;DHT22;57916;51.996;5.180;2022-11-13T12:48:41;17.40;50.10
70456;DHT22;57916;51.996;5.180;2022-11-13T12:51:37;17.40;50.30
70456;DHT22;57916;51.996;5.180;2022-11-13T12:54:32;17.50;50.60
70456;DHT22;57916;51.996;5.180;2022-11-13T12:57:23;17.50;51.10
70456;DHT22;57916;51.996;5.180;2022-11-13T13:00:26;17.50;50.30
70456;DHT22;57916;51.996;5.180;2022-11-13T13:15:42;17.60;51.80
70456;DHT22;57916;51.996;5.180;2022-11-13T13:18:32;17.60;51.40
70456;DHT22;57916;51.996;5.180;2022-11-13T13:21:19;17.70;51.50
70456;DHT22;57916;51.996;5.180;2022-11-13T13:24:25;17.70;52.00
70456;DHT22;57916;51.996;5.180;2022-11-13T13:27:21;17.80;51.80
70456;DHT22;57916;51.996;5.180;2022-11-13T13:30:21;17.80;52.40
70456;DHT22;57916;51.996;5.180;2022-11-13T13:45:39;17.90;51.90
70456;DHT22;57916;51.996;5.180;2022-11-13T13:48:29;17.90;51.80
70456;DHT22;57916;51.996;5.180;2022-11-13T13:51:25;17.90;51.70
70456;DHT22;57916;51.996;5.180;2022-11-13T13:54:18;17.80;51.50
70456;DHT22;57916;51.996;5.180;2022-11-13T13:57:03;17.80;51.90
70456;DHT22;57916;51.996;5.180;2022-11-13T13:59:49;17.80;52.40
70456;DHT22;57916;51.996;5.180;2022-11-13T14:02:44;17.80;52.60
70456;DHT22;57916;51.996;5.180;2022-11-13T14:05:31;17.80;52.70
70456;DHT22;57916;51.996;5.180;2022-11-13T14:08:18;17.80;52.60
70456;DHT22;57916;51.996;5.180;2022-11-13T14:11:17;17.80;52.20
70456;DHT22;57916;51.996;5.180;2022-11-13T14:14:29;17.80;52.40
70456;DHT22;57916;51.996;5.180;2022-11-13T14:17:22;17.80;52.20
70456;DHT22;57916;51.996;5.180;2022-11-13T14:20:11;17.80;52.30
70456;DHT22;57916;51.996;5.180;2022-11-13T14:22:56;17.70;52.20
70456;DHT22;57916;51.996;5.180;2022-11-13T14:25:42;17.70;52.20
70456;DHT22;57916;51.996;5.180;2022-11-13T14:28:31;17.70;52.00
70456;DHT22;57916;51.996;5.180;2022-11-13T14:31:17;17.60;51.80
70456;DHT22;57916;51.996;5.180;2022-11-13T14:34:13;17.60;51.60
70456;DHT22;57916;51.996;5.180;2022-11-13T14:37:21;17.60;51.40
70456;DHT22;57916;51.996;5.180;2022-11-13T14:43:06;17.60;51.20
70456;DHT22;57916;51.996;5.180;2022-11-13T14:45:54;17.60;51.40
70456;DHT22;57916;51.996;5.180;2022-11-13T14:48:51;17.60;51.40
70456;DHT22;57916;51.996;5.180;2022-11-13T14:51:38;17.60;51.60
70456;DHT22;57916;51.996;5.180;2022-11-13T14:54:32;17.60;51.50
70456;DHT22;57916;51.996;5.180;2022-11-13T14:57:48;17.60;51.70
70456;DHT22;57916;51.996;5.180;2022-11-13T15:00:36;17.50;52.20
70456;DHT22;57916;51.996;5.180;2022-11-13T15:03:22;17.50;52.20
70456;DHT22;57916;51.996;5.180;2022-11-13T15:06:21;17.50;51.90
70456;DHT22;57916;51.996;5.180;2022-11-13T15:09:12;17.50;52.20
70456;DHT22;57916;51.996;5.180;2022-11-13T15:11:58;17.50;51.60
70456;DHT22;57916;51.996;5.180;2022-11-13T15:14:43;17.40;51.70
70456;DHT22;57916;51.996;5.180;2022-11-13T15:17:29;17.40;51.80
70456;DHT22;57916;51.996;5.180;2022-11-13T15:20:20;17.40;51.80
70456;DHT22;57916;51.996;5.180;2022-11-13T15:23:08;17.30;51.70
70456;DHT22;57916;51.996;5.180;2022-11-13T15:25:55;17.20;51.70
70456;DHT22;57916;51.996;5.180;2022-11-13T15:28:40;17.20;51.80
70456;DHT22;57916;51.996;5.180;2022-11-13T15:31:32;17.10;52.10
70456;DHT22;57916;51.996;5.180;2022-11-13T15:34:18;17.10;52.10
70456;DHT22;57916;51.996;5.180;2022-11-13T15:37:11;17.10;52.20
70456;DHT22;57916;51.996;5.180;2022-11-13T15:39:57;17.00;51.90
70456;DHT22;57916;51.996;5.180;2022-11-13T15:42:43;16.90;51.70
70456;DHT22;57916;51.996;5.180;2022-11-13T15:45:29;16.80;51.30
70456;DHT22;57916;51.996;5.180;2022-11-13T15:48:14;16.70;50.90
70456;DHT22;57916;51.996;5.180;2022-11-13T15:51:00;16.60;50.30
70456;DHT22;57916;51.996;5.180;2022-11-13T15:53:49;16.50;49.80
70456;DHT22;57916;51.996;5.180;2022-11-13T15:56:35;16.50;49.60
70456;DHT22;57916;51.996;5.180;2022-11-13T15:59:20;16.50;49.60
70456;DHT22;57916;51.996;5.180;2022-11-13T16:02:08;16.50;49.30
70456;DHT22;57916;51.996;5.180;2022-11-13T16:04:53;16.50;49.00
70456;DHT22;57916;51.996;5.180;2022-11-13T16:07:41;16.50;48.90
70456;DHT22;57916;51.996;5.180;2022-11-13T16:10:27;16.50;48.70
70456;DHT22;57916;51.996;5.180;2022-11-13T16:13:13;16.50;48.50
70456;DHT22;57916;51.996;5.180;2022-11-13T16:15:59;16.50;48.40
70456;DHT22;57916;51.996;5.180;2022-11-13T16:18:45;16.50;48.00
70456;DHT22;57916;51.996;5.180;2022-11-13T16:21:31;16.40;47.80
70456;DHT22;57916;51.996;5.180;2022-11-13T16:24:16;16.50;47.30
70456;DHT22;57916;51.996;5.180;2022-11-13T16:27:08;16.50;47.20
70456;DHT22;57916;51.996;5.180;2022-11-13T16:29:56;16.50;47.30
70456;DHT22;57916;51.996;5.180;2022-11-13T16:32:48;16.40;47.40
70456;DHT22;57916;51.996;5.180;2022-11-13T16:35:33;16.30;47.50
70456;DHT22;57916;51.996;5.180;2022-11-13T16:38:19;16.20;48.20
70456;DHT22;57916;51.996;5.180;2022-11-13T16:41:04;16.00;48.50
70456;DHT22;57916;51.996;5.180;2022-11-13T16:43:50;15.80;49.20
70456;DHT22;57916;51.996;5.180;2022-11-13T16:46:37;15.70;49.30
70456;DHT22;57916;51.996;5.180;2022-11-13T16:49:26;15.70;49.50
70456;DHT22;57916;51.996;5.180;2022-11-13T16:52:11;15.60;49.60
70456;DHT22;57916;51.996;5.180;2022-11-13T16:54:57;15.60;49.90
70456;DHT22;57916;51.996;5.180;2022-11-13T16:57:50;15.50;50.30
70456;DHT22;57916;51.996;5.180;2022-11-13T17:00:35;15.40;50.20
70456;DHT22;57916;51.996;5.180;2022-11-13T17:03:20;15.30;50.70
70456;DHT22;57916;51.996;5.180;2022-11-13T17:06:11;15.30;51.10
70456;DHT22;57916;51.996;5.180;2022-11-13T17:08:58;15.30;51.60
70456;DHT22;57916;51.996;5.180;2022-11-13T17:11:43;15.30;51.90
70456;DHT22;57916;51.996;5.180;2022-11-13T17:14:29;15.30;52.00
70456;DHT22;57916;51.996;5.180;2022-11-13T17:17:14;15.20;52.00
70456;DHT22;57916;51.996;5.180;2022-11-13T17:20:00;15.10;52.20
70456;DHT22;57916;51.996;5.180;2022-11-13T17:22:46;15.10;52.20
70456;DHT22;57916;51.996;5.180;2022-11-13T17:25:32;14.90;51.90
70456;DHT22;57916;51.996;5.180;2022-11-13T17:28:18;14.80;52.50
70456;DHT22;57916;51.996;5.180;2022-11-13T17:31:06;14.60;53.00
70456;DHT22;57916;51.996;5.180;2022-11-13T17:33:53;14.60;53.50
70456;DHT22;57916;51.996;5.180;2022-11-13T17:36:38;14.50;54.00
70456;DHT22;57916;51.996;5.180;2022-11-13T17:39:23;14.50;54.40
70456;DHT22;57916;51.996;5.180;2022-11-13T17:42:09;14.60;54.20
70456;DHT22;57916;51.996;5.180;2022-11-13T17:44:54;14.60;53.80
70456;DHT22;57916;51.996;5.180;2022-11-13T17:47:40;14.60;54.10
70456;DHT22;57916;51.996;5.180;2022-11-13T17:50:25;14.50;54.10
70456;DHT22;57916;51.996;5.180;2022-11-13T17:53:12;14.50;54.40
70456;DHT22;57916;51.996;5.180;2022-11-13T17:56:02;14.40;54.90
70456;DHT22;57916;51.996;5.180;2022-11-13T17:58:49;14.40;54.80
70456;DHT22;57916;51.996;5.180;2022-11-13T18:01:34;14.40;54.90
70456;DHT22;57916;51.996;5.180;2022-11-13T18:04:19;14.40;55.10
70456;DHT22;57916;51.996;5.180;2022-11-13T18:07:05;14.40;55.30
70456;DHT22;57916;51.996;5.180;2022-11-13T18:09:50;14.40;55.40
70456;DHT22;57916;51.996;5.180;2022-11-13T18:12:36;14.30;55.70
70456;DHT22;57916;51.996;5.180;2022-11-13T18:15:22;14.30;55.90
70456;DHT22;57916;51.996;5.180;2022-11-13T18:18:08;14.30;56.10
70456;DHT22;57916;51.996;5.180;2022-11-13T18:20:54;14.30;56.30
70456;DHT22;57916;51.996;5.180;2022-11-13T18:23:39;14.30;56.30
70456;DHT22;57916;51.996;5.180;2022-11-13T18:26:25;14.30;56.20
70456;DHT22;57916;51.996;5.180;2022-11-13T18:29:11;14.30;56.30
70456;DHT22;57916;51.996;5.180;2022-11-13T18:31:56;14.20;56.50
70456;DHT22;57916;51.996;5.180;2022-11-13T18:34:42;14.20;56.60
70456;DHT22;57916;51.996;5.180;2022-11-13T18:37:28;14.10;56.70
70456;DHT22;57916;51.996;5.180;2022-11-13T18:40:14;14.10;56.80
70456;DHT22;57916;51.996;5.180;2022-11-13T18:43:00;14.00;56.60
70456;DHT22;57916;51.996;5.180;2022-11-13T18:45:55;14.00;56.70
70456;DHT22;57916;51.996;5.180;2022-11-13T18:48:41;13.90;56.70
70456;DHT22;57916;51.996;5.180;2022-11-13T18:51:28;13.90;57.00
70456;DHT22;57916;51.996;5.180;2022-11-13T18:54:13;13.80;57.40
70456;DHT22;57916;51.996;5.180;2022-11-13T18:56:59;13.70;58.00
70456;DHT22;57916;51.996;5.180;2022-11-13T18:59:44;13.60;59.50
70456;DHT22;57916;51.996;5.180;2022-11-13T19:02:30;13.60;58.30
70456;DHT22;57916;51.996;5.180;2022-11-13T19:05:15;13.60;58.00
70456;DHT22;57916;51.996;5.180;2022-11-13T19:08:01;13.60;57.70
70456;DHT22;57916;51.996;5.180;2022-11-13T19:10:46;13.60;57.70
70456;DHT22;57916;51.996;5.180;2022-11-13T19:13:33;13.50;57.70